Terminal Aerodrome Forecast
Issued by NWS

Current Version | Previous Version | Text Only | Print | Product List | Glossary On
Versions: 1 2 3 4 5 6 7 8 9 10 11 12 13 14 15 16 17 18 19
000
FTUS42 KFFC 292337
TAFRYY
TAF
KRYY 292337Z 3000/3024 09006KT P6SM FEW060 SCT150
     FM301000 04003KT P6SM SCT120
     FM301500 35006KT P6SM FEW040
     FM301800 34007KT P6SM VCSH BKN050 PROB30 3019/3023 6SM -TSRA
      BKN040CB
      AMD NOT SKED 3004/3012=

USA.gov is the U.S. government's official web portal to all federal, state and local government web resources and services.